Time;durP1;ratioP1;P1;durP2;ratioP2;P2;SDS_P1;SDS_P2;PMS_P1;PMS_P2;Temp;Humidity;BMP_temperature;BMP_pressure;BME280_temperature;BME280_humidity;BME280_pressure;Samples;Min_cycle;Max_cycle;Signal;HPM_P1;HPM_P2
2024/01/09 00:00:28;;;;;;;12.60;7.38;;;;;;;-3.80;57.91;102125.78;4901290;29;20095;-68
2024/01/09 00:03:32;;;;;;;;;;;;;;;-3.95;58.80;102125.31;4901785;29;20051;-68
2024/01/09 00:06:35;;;;;;;12.13;7.90;;;;;;;-3.89;58.64;102128.94;4900147;29;20430;-66
2024/01/09 00:09:38;;;;;;;12.07;7.32;;;;;;;-4.08;58.79;102131.69;4900970;29;20071;-66
2024/01/09 00:12:41;;;;;;;12.50;6.65;;;;;;;-3.94;58.51;102134.69;4901197;29;20463;-66
2024/01/09 00:15:45;;;;;;;10.60;7.25;;;;;;;-3.99;58.45;102127.75;4900992;29;20124;-66
2024/01/09 00:18:53;;;;;;;13.38;7.60;;;;;;;-3.96;58.92;102121.84;4901219;29;20055;-66
2024/01/09 00:21:56;;;;;;;11.85;7.32;;;;;;;-4.00;58.38;102127.69;4901036;29;20047;-66
2024/01/09 00:24:59;;;;;;;12.20;6.93;;;;;;;-3.97;58.61;102117.56;4901063;29;20467;-66
2024/01/09 00:28:03;;;;;;;13.65;7.53;;;;;;;-3.97;58.95;102121.00;4900660;29;20051;-65
2024/01/09 00:31:06;;;;;;;;;;;;;;;-3.92;59.06;102121.16;4901190;29;20059;-66
2024/01/09 00:34:09;;;;;;;12.13;7.63;;;;;;;-4.03;58.79;102118.22;4900710;29;19921;-66
2024/01/09 00:37:12;;;;;;;14.73;7.80;;;;;;;-4.13;58.51;102128.97;4900750;29;20074;-66
2024/01/09 00:40:16;;;;;;;;;;;;;;;-4.07;59.02;102129.19;4901108;29;20044;-66
2024/01/09 00:43:18;;;;;;;13.07;7.30;;;;;;;-4.03;59.21;102130.16;4900662;29;19922;-66
2024/01/09 00:46:26;;;;;;;11.70;7.03;;;;;;;-4.05;59.10;102125.00;4900666;29;20135;-66
2024/01/09 00:49:29;;;;;;;14.27;7.88;;;;;;;-4.01;59.71;102128.53;4900224;29;20550;-66
2024/01/09 00:52:32;;;;;;;12.38;7.10;;;;;;;-4.19;59.13;102118.56;4900010;29;20180;-66
2024/01/09 00:55:36;;;;;;;12.60;7.63;;;;;;;-4.11;58.83;102122.25;4900392;29;20513;-66
2024/01/09 00:58:39;;;;;;;12.73;7.47;;;;;;;-4.04;59.24;102119.06;4900089;29;20063;-66
2024/01/09 01:01:42;;;;;;;13.88;8.07;;;;;;;-4.13;58.54;102116.19;4899256;29;20052;-65
2024/01/09 01:04:46;;;;;;;11.98;7.63;;;;;;;-4.12;59.12;102125.59;4899272;29;20039;-66
2024/01/09 01:07:49;;;;;;;;;;;;;;;-4.08;58.75;102119.78;4899758;29;20104;-66
2024/01/09 01:10:52;;;;;;;10.77;6.15;;;;;;;-4.28;59.19;102118.22;4899280;29;19983;-66
2024/01/09 01:13:55;;;;;;;12.10;7.78;;;;;;;-4.18;59.60;102120.28;4900314;29;20104;-66
2024/01/09 01:16:58;;;;;;;12.70;7.55;;;;;;;-4.12;59.40;102119.63;4899799;29;20075;-66
2024/01/09 01:20:02;;;;;;;11.90;7.13;;;;;;;-4.01;58.89;102133.63;4898652;29;20087;-65
2024/01/09 01:23:05;;;;;;;12.95;8.00;;;;;;;-4.10;59.80;102129.06;4886239;29;20117;-66
2024/01/09 01:26:08;;;;;;;10.35;7.18;;;;;;;-3.95;59.28;102122.75;4898805;29;20147;-66
2024/01/09 01:29:12;;;;;;;13.00;7.75;;;;;;;-4.15;59.11;102124.63;4898477;29;20051;-66
2024/01/09 01:32:15;;;;;;;13.40;8.48;;;;;;;-4.33;59.92;102140.22;4898947;29;20052;-66
2024/01/09 01:35:18;;;;;;;13.50;7.45;;;;;;;-4.28;59.66;102139.53;4899593;29;20067;-66
2024/01/09 01:38:22;;;;;;;15.00;7.68;;;;;;;-4.23;59.73;102126.94;4899320;29;20111;-66
2024/01/09 01:41:25;;;;;;;11.10;7.28;;;;;;;-4.19;59.37;102131.31;4899653;29;20051;-66
2024/01/09 01:44:29;;;;;;;13.02;7.85;;;;;;;-4.14;58.67;102137.47;4899171;29;20051;-66
2024/01/09 01:47:32;;;;;;;12.82;7.10;;;;;;;-4.03;58.80;102130.16;4899607;29;20100;-66
2024/01/09 01:50:37;;;;;;;12.38;7.50;;;;;;;-4.13;58.95;102134.09;4899008;29;20513;-66
2024/01/09 01:53:42;;;;;;;14.18;7.35;;;;;;;-4.40;59.24;102133.13;4899027;29;20047;-66
2024/01/09 01:56:46;;;;;;;12.70;6.65;;;;;;;-4.37;59.70;102128.13;4899376;29;20104;-66
2024/01/09 01:59:49;;;;;;;12.30;7.00;;;;;;;-4.35;59.46;102129.06;4899268;29;20048;-66
2024/01/09 02:02:53;;;;;;;11.85;7.47;;;;;;;-4.22;59.33;102128.66;4899214;29;20509;-66
2024/01/09 02:05:57;;;;;;;11.30;6.68;;;;;;;-4.28;58.76;102119.09;4898609;29;20100;-66
2024/01/09 02:09:01;;;;;;;12.35;7.13;;;;;;;-4.41;59.43;102128.84;4899144;29;20047;-66
2024/01/09 02:12:05;;;;;;;13.32;7.80;;;;;;;-4.44;60.15;102122.81;4898605;29;20083;-66
2024/01/09 02:15:09;;;;;;;11.38;6.93;;;;;;;-4.26;59.17;102117.47;4898808;29;20050;-66
2024/01/09 02:18:12;;;;;;;11.95;7.25;;;;;;;-4.21;59.40;102120.19;4898824;29;20497;-65
2024/01/09 02:21:15;;;;;;;10.65;7.18;;;;;;;-4.31;59.62;102113.88;4898946;29;20051;-66
2024/01/09 02:24:18;;;;;;;12.02;7.43;;;;;;;-4.32;59.47;102117.25;4898851;29;20056;-65
2024/01/09 02:28:07;;;;;;;9.05;5.75;;;;;;;-4.31;59.24;102119.00;4898403;29;20402;-65
2024/01/09 02:31:10;;;;;;;11.77;7.15;;;;;;;-4.27;59.52;102118.31;4897112;29;20517;-66
2024/01/09 02:34:15;;;;;;;10.68;7.15;;;;;;;-4.32;59.54;102119.81;4897376;29;20143;-66
2024/01/09 02:37:18;;;;;;;11.70;7.20;;;;;;;-4.51;59.38;102113.22;4898634;29;20092;-66
2024/01/09 02:40:22;;;;;;;11.15;6.28;;;;;;;-4.42;59.70;102109.25;4897731;29;20112;-66
2024/01/09 02:43:25;;;;;;;11.68;7.55;;;;;;;-4.49;59.81;102103.94;4897696;29;20132;-66
2024/01/09 02:46:29;;;;;;;14.35;7.53;;;;;;;-4.46;59.89;102108.28;4898344;29;20132;-67
2024/01/09 02:49:32;;;;;;;11.55;6.88;;;;;;;-4.53;59.96;102109.75;4897781;29;20120;-67
2024/01/09 02:52:35;;;;;;;11.25;7.50;;;;;;;-4.40;59.84;102105.03;4898139;29;20425;-67
2024/01/09 02:55:38;;;;;;;10.98;7.05;;;;;;;-4.38;59.84;102106.84;4898207;29;20100;-67
2024/01/09 02:58:42;;;;;;;12.10;7.50;;;;;;;-4.33;58.98;102104.47;4897666;29;20059;-67
2024/01/09 03:01:45;;;;;;;11.02;6.88;;;;;;;-4.34;59.13;102097.59;4897547;29;20039;-67
2024/01/09 03:04:49;;;;;;;10.23;7.07;;;;;;;-4.34;59.44;102098.50;4898173;29;20046;-67
2024/01/09 03:07:52;;;;;;;;;;;;;;;-4.47;59.57;102096.31;4898372;29;20051;-67
2024/01/09 03:10:55;;;;;;;13.02;7.60;;;;;;;-4.56;59.39;102106.19;4897549;29;19926;-67
2024/01/09 03:13:58;;;;;;;11.55;7.30;;;;;;;-4.58;59.54;102102.75;4898163;29;20104;-67
2024/01/09 03:17:02;;;;;;;12.35;7.78;;;;;;;-4.48;59.53;102103.09;4898017;29;20566;-67
2024/01/09 03:20:06;;;;;;;10.77;6.53;;;;;;;-4.50;59.27;102099.66;4897834;29;20078;-67
2024/01/09 03:23:10;;;;;;;12.38;6.70;;;;;;;-4.41;59.02;102103.31;4896884;29;20083;-67
2024/01/09 03:26:14;;;;;;;13.63;7.05;;;;;;;-4.50;59.94;102109.88;4897751;29;20148;-67
2024/01/09 03:29:18;;;;;;;12.35;7.75;;;;;;;-4.48;59.54;102104.78;4898013;29;20521;-67
2024/01/09 03:32:21;;;;;;;11.02;6.88;;;;;;;-4.41;59.58;102096.53;4897540;29;20108;-67
2024/01/09 03:35:24;;;;;;;11.88;6.65;;;;;;;-4.56;59.74;102102.00;4897732;29;20051;-67
2024/01/09 03:38:27;;;;;;;13.20;7.22;;;;;;;-4.53;59.45;102093.53;4897600;29;20430;-67
2024/01/09 03:41:34;;;;;;;13.82;7.65;;;;;;;-4.55;59.86;102108.81;4897796;29;20514;-67
2024/01/09 03:44:37;;;;;;;11.35;6.63;;;;;;;-4.50;59.71;102102.19;4897467;29;20529;-66
2024/01/09 03:47:44;;;;;;;10.85;6.88;;;;;;;-4.59;59.63;102108.69;4897766;29;20139;-68
2024/01/09 03:51:29;;;;;;;13.25;6.45;;;;;;;-4.63;59.50;102100.00;4897459;29;20059;-68
2024/01/09 03:54:32;;;;;;;13.45;7.18;;;;;;;-4.64;58.92;102105.94;4897606;29;20104;-68
2024/01/09 03:57:35;;;;;;;12.80;7.68;;;;;;;-4.42;59.24;102099.03;4897717;29;20195;-68
2024/01/09 04:00:39;;;;;;;13.55;7.68;;;;;;;-4.63;59.93;102102.56;4897492;29;20036;-68
2024/01/09 04:03:42;;;;;;;9.60;6.63;;;;;;;-4.54;59.38;102095.22;4897555;29;20423;-68
2024/01/09 04:06:45;;;;;;;11.95;6.50;;;;;;;-4.65;58.44;102096.56;4896979;29;20052;-68
2024/01/09 04:09:49;;;;;;;11.40;6.72;;;;;;;-4.79;59.51;102102.84;4897584;29;20406;-68
2024/01/09 04:12:52;;;;;;;11.82;7.28;;;;;;;-4.77;59.83;102101.22;4897453;29;20666;-68
2024/01/09 04:15:56;;;;;;;11.23;6.90;;;;;;;-4.74;60.03;102093.69;4896736;29;20043;-68
2024/01/09 04:18:59;;;;;;;;;;;;;;;-4.66;59.83;102094.81;4897511;29;20425;-68
2024/01/09 04:22:03;;;;;;;9.68;5.35;;;;;;;-4.75;58.65;102095.38;4889697;29;19926;-68
2024/01/09 04:25:06;;;;;;;12.02;6.93;;;;;;;-4.81;59.62;102099.38;4897136;29;20105;-68
2024/01/09 04:28:09;;;;;;;27.90;15.73;;;;;;;-4.71;59.26;102104.00;4894224;29;20118;-69
2024/01/09 04:31:12;;;;;;;;;;;;;;;-4.67;58.79;102098.19;4885686;29;20039;-68
2024/01/09 04:34:15;;;;;;;40.72;21.50;;;;;;;-4.60;58.32;102107.78;4896181;29;19922;-68
2024/01/09 04:37:19;;;;;;;14.38;8.73;;;;;;;-4.71;58.98;102106.56;4888728;29;20125;-68
2024/01/09 04:40:22;;;;;;;14.05;7.82;;;;;;;-4.59;58.97;102108.69;4891872;29;20055;-68
2024/01/09 04:43:25;;;;;;;;;;;;;;;-4.64;58.97;102103.38;4892428;29;20097;-67
2024/01/09 04:46:28;;;;;;;26.45;16.23;;;;;;;-4.88;59.42;102111.06;4890310;29;19972;-69
2024/01/09 04:49:32;;;;;;;12.13;7.18;;;;;;;-4.86;59.28;102109.41;4891066;29;20059;-67
2024/01/09 04:52:37;;;;;;;;;;;;;;;-5.02;59.27;102110.53;4892686;29;20612;-67
2024/01/09 04:55:40;;;;;;;12.13;6.30;;;;;;;-4.98;59.78;102099.66;4891557;29;19962;-68
2024/01/09 04:58:43;;;;;;;9.60;5.95;;;;;;;-5.13;60.06;102109.28;4891357;29;20139;-68
2024/01/09 05:02:01;;;;;;;9.82;6.18;;;;;;;-5.01;58.97;102102.09;4889747;29;20096;-73
2024/01/09 05:05:05;;;;;;;11.63;6.03;;;;;;;-4.95;58.81;102102.28;4881516;29;20472;-68
2024/01/09 05:08:08;;;;;;;11.02;5.95;;;;;;;-4.98;59.41;102099.66;4886234;29;20586;-68
2024/01/09 05:11:11;;;;;;;8.65;4.97;;;;;;;-4.89;59.51;102096.53;4894985;29;20522;-68
2024/01/09 05:14:14;;;;;;;10.02;5.90;;;;;;;-4.99;58.61;102090.25;4883587;29;20107;-68
2024/01/09 05:17:17;;;;;;;9.95;6.45;;;;;;;-5.00;59.29;102090.19;4899482;29;20524;-69
2024/01/09 05:20:21;;;;;;;11.13;6.38;;;;;;;-4.84;58.69;102087.38;4900006;29;20127;-68
2024/01/09 05:23:25;;;;;;;11.48;6.13;;;;;;;-5.15;59.00;102093.03;4899420;29;20051;-68
2024/01/09 05:26:28;;;;;;;10.48;6.47;;;;;;;-5.08;60.09;102082.25;4896506;29;20733;-67
2024/01/09 05:29:31;;;;;;;8.52;5.35;;;;;;;-5.01;59.30;102089.34;4881038;29;20043;-68
2024/01/09 05:32:35;;;;;;;9.52;5.85;;;;;;;-4.86;58.80;102085.59;4886520;29;20626;-67
2024/01/09 05:35:38;;;;;;;10.40;5.50;;;;;;;-5.12;61.85;102093.16;4899475;29;20047;-72
2024/01/09 05:38:41;;;;;;;10.45;5.65;;;;;;;-4.97;61.90;102088.63;4886221;29;20575;-72
2024/01/09 05:41:45;;;;;;;11.05;6.15;;;;;;;-4.77;59.52;102080.81;4881165;29;20081;-67
2024/01/09 05:44:48;;;;;;;10.35;5.53;;;;;;;-4.76;59.10;102082.53;4880597;29;20048;-68
2024/01/09 05:47:51;;;;;;;11.27;5.35;;;;;;;-4.89;60.00;102085.47;4879912;29;20056;-68
2024/01/09 05:50:55;;;;;;;9.40;5.60;;;;;;;-4.96;60.35;102086.94;4880509;29;20043;-67
2024/01/09 05:53:58;;;;;;;9.85;5.72;;;;;;;-4.84;59.84;102081.41;4869303;29;20060;-67
2024/01/09 05:57:01;;;;;;;10.20;6.15;;;;;;;-5.18;60.52;102086.16;4880793;29;20083;-67
2024/01/09 06:00:06;;;;;;;10.68;5.90;;;;;;;-5.39;60.83;102080.28;4880323;29;20060;-67
2024/01/09 06:03:10;;;;;;;10.77;5.50;;;;;;;-5.34;62.63;102080.44;4887539;29;20101;-67
2024/01/09 06:06:13;;;;;;;10.23;5.25;;;;;;;-5.41;62.76;102080.19;4883077;29;20168;-66
2024/01/09 06:09:16;;;;;;;9.57;5.40;;;;;;;-5.52;63.50;102081.47;4895737;29;20430;-67
2024/01/09 06:12:48;;;;;;;10.80;5.32;;;;;;;-5.35;61.76;102078.69;4898146;29;20510;-67
2024/01/09 06:15:52;;;;;;;9.30;5.43;;;;;;;-5.29;61.46;102073.84;4894623;29;20136;-67
2024/01/09 06:18:55;;;;;;;9.38;5.43;;;;;;;-5.30;62.35;102087.38;4892233;29;20047;-67
2024/01/09 06:21:59;;;;;;;7.72;4.57;;;;;;;-5.49;62.02;102081.56;4891655;29;20040;-68
2024/01/09 06:25:03;;;;;;;12.50;5.50;;;;;;;-5.83;63.65;102084.50;4879907;29;20055;-67
2024/01/09 06:28:07;;;;;;;12.55;5.97;;;;;;;-5.65;63.10;102087.78;4879940;29;20052;-68
2024/01/09 06:31:10;;;;;;;10.63;6.45;;;;;;;-5.69;62.68;102091.00;4880130;29;20056;-67
2024/01/09 06:34:14;;;;;;;12.52;5.75;;;;;;;-5.44;62.58;102084.31;4879958;29;20048;-67
2024/01/09 06:37:21;;;;;;;9.77;5.70;;;;;;;-5.52;62.19;102091.69;4879977;29;20534;-67
2024/01/09 06:40:24;;;;;;;8.02;5.00;;;;;;;-5.36;62.56;102088.00;4880019;29;20469;-67
2024/01/09 06:43:28;;;;;;;10.05;5.28;;;;;;;-5.21;62.30;102090.25;4868434;29;20075;-67
2024/01/09 06:46:31;;;;;;;10.15;5.45;;;;;;;-5.23;62.13;102094.47;4879919;29;20173;-65
2024/01/09 06:49:43;;;;;;;11.68;5.63;;;;;;;-5.63;63.20;102098.88;4879921;29;20466;-66
2024/01/09 06:52:51;;;;;;;9.60;5.53;;;;;;;-5.46;61.42;102096.13;4879805;29;20071;-72
2024/01/09 06:55:57;;;;;;;11.75;5.90;;;;;;;-5.63;61.34;102100.56;4878469;29;20079;-67
2024/01/09 06:59:00;;;;;;;10.15;5.75;;;;;;;-5.34;60.53;102093.16;4879282;29;20575;-64
2024/01/09 07:02:28;;;;;;;11.13;5.72;;;;;;;-5.71;62.16;102104.47;4878738;29;20616;-65
2024/01/09 07:05:31;;;;;;;8.63;5.05;;;;;;;-5.64;62.70;102102.25;4877831;29;20059;-65
2024/01/09 07:08:34;;;;;;;9.43;5.60;;;;;;;-5.51;62.32;102098.50;4877532;29;20136;-65
2024/01/09 07:11:38;;;;;;;;;;;;;;;-5.55;62.14;102104.31;4878358;29;20099;-65
2024/01/09 07:14:41;;;;;;;9.45;5.72;;;;;;;-5.42;60.30;102098.84;4877888;29;19964;-70
2024/01/09 07:17:48;;;;;;;11.30;5.53;;;;;;;-5.80;60.74;102106.69;4878312;29;20060;-64
2024/01/09 07:20:53;;;;;;;8.25;5.28;;;;;;;-5.91;62.22;102107.09;4877774;29;20467;-64
2024/01/09 07:23:57;;;;;;;10.05;4.70;;;;;;;-5.80;62.32;102110.09;4877759;29;20044;-65
2024/01/09 07:27:01;;;;;;;10.30;5.97;;;;;;;-5.75;62.38;102107.72;4877856;29;20047;-65
2024/01/09 07:30:04;;;;;;;8.25;4.97;;;;;;;-5.52;62.15;102117.16;4877724;29;20067;-66
2024/01/09 07:33:08;;;;;;;7.80;4.35;;;;;;;-5.58;61.60;102116.91;4877456;29;20583;-66
2024/01/09 07:36:11;;;;;;;15.73;4.43;;;;;;;-5.53;61.21;102125.59;4877721;29;20068;-65
2024/01/09 07:39:14;;;;;;;7.50;4.57;;;;;;;-5.91;63.07;102114.75;4891036;29;20047;-66
2024/01/09 07:42:17;;;;;;;7.85;4.88;;;;;;;-5.68;61.76;102119.91;4894572;29;20055;-66
2024/01/09 07:49:34;;;;;;;8.52;5.07;;;;;;;-5.60;62.59;102138.91;4889039;29;20136;-66
2024/01/09 07:52:37;;;;;;;22.85;10.18;;;;;;;-5.32;63.12;102132.34;4894432;29;20077;-66
2024/01/09 07:55:41;;;;;;;8.77;5.07;;;;;;;-5.11;61.58;102125.50;4884194;29;20059;-67
2024/01/09 07:58:46;;;;;;;9.02;5.47;;;;;;;-5.11;61.91;102133.16;4895651;29;20079;-65
2024/01/09 08:01:54;;;;;;;8.50;5.05;;;;;;;-4.84;60.58;102135.88;4878286;29;20128;-64
2024/01/09 08:04:58;;;;;;;9.52;5.55;;;;;;;-4.94;60.29;102128.69;4895564;29;20047;-65
2024/01/09 08:08:01;;;;;;;8.70;5.70;;;;;;;-4.90;60.36;102130.53;4894114;29;20093;-65
2024/01/09 08:11:05;;;;;;;9.38;5.60;;;;;;;-4.92;60.09;102127.91;4895812;29;20047;-65
2024/01/09 08:14:11;;;;;;;;;;;;;;;-4.90;60.26;102133.09;4898743;29;20055;-65
2024/01/09 08:17:15;;;;;;;10.95;5.82;;;;;;;-4.95;59.76;102126.94;4878730;29;19922;-64
2024/01/09 08:20:18;;;;;;;9.55;5.55;;;;;;;-4.79;60.42;102128.34;4880358;29;20056;-64
2024/01/09 08:23:24;;;;;;;9.70;6.00;;;;;;;-4.77;59.85;102148.03;4880649;29;20044;-66
2024/01/09 08:26:33;;;;;;;8.80;5.57;;;;;;;-4.86;59.11;102144.28;4894109;29;20098;-65
2024/01/09 08:29:43;;;;;;;8.35;4.95;;;;;;;-4.82;58.20;102138.44;4899474;29;20078;-65
2024/01/09 08:32:52;;;;;;;11.70;7.45;;;;;;;-4.65;58.16;102139.94;4900145;29;20128;-65
2024/01/09 08:35:59;;;;;;;11.93;6.43;;;;;;;-4.67;58.04;102139.00;4899946;29;20143;-65
2024/01/09 08:39:14;;;;;;;15.63;5.63;;;;;;;-4.61;58.29;102136.69;4899308;29;20119;-65
2024/01/09 08:42:18;;;;;;;10.73;6.13;;;;;;;-4.63;58.03;102140.84;4899141;29;20108;-66
2024/01/09 08:45:21;;;;;;;13.02;6.88;;;;;;;-4.54;57.62;102127.56;4899174;29;20470;-65
2024/01/09 08:48:50;;;;;;;10.68;6.13;;;;;;;-4.47;57.53;102137.16;4899532;29;20107;-65
2024/01/09 08:51:54;;;;;;;9.90;5.28;;;;;;;-4.54;57.55;102141.19;4898786;29;20092;-65
2024/01/09 08:54:57;;;;;;;7.70;4.60;;;;;;;-4.44;57.32;102145.78;4899126;29;20086;-66
2024/01/09 08:58:00;;;;;;;9.32;5.25;;;;;;;-4.35;56.57;102134.16;4898751;29;20083;-63
2024/01/09 09:01:03;;;;;;;;;;;;;;;-4.39;56.35;102140.84;4899195;29;20100;-63
2024/01/09 09:04:06;;;;;;;9.73;5.00;;;;;;;-4.45;57.65;102136.41;4898913;29;20304;-62
2024/01/09 09:07:10;;;;;;;8.20;4.45;;;;;;;-4.39;56.52;102140.00;4898756;29;20097;-64
2024/01/09 09:10:13;;;;;;;9.82;4.32;;;;;;;-4.36;56.04;102129.88;4899001;29;20048;-64
2024/01/09 09:13:16;;;;;;;13.35;5.50;;;;;;;-4.38;57.08;102137.47;4898807;29;20140;-64
2024/01/09 09:16:20;;;;;;;10.90;5.25;;;;;;;-4.24;56.14;102122.66;4898670;29;20091;-64
2024/01/09 09:19:23;;;;;;;9.02;5.47;;;;;;;-4.35;55.47;102132.47;4898425;29;20051;-64
2024/01/09 09:22:28;;;;;;;8.30;4.38;;;;;;;-4.29;56.73;102126.72;4897526;29;20096;-64
2024/01/09 09:25:32;;;;;;;10.13;5.75;;;;;;;-4.28;55.52;102124.22;4885639;29;20111;-64
2024/01/09 09:28:35;;;;;;;31.50;13.40;;;;;;;-4.26;55.30;102129.38;4896212;29;20047;-63
2024/01/09 09:31:39;;;;;;;12.40;7.35;;;;;;;-4.13;54.21;102123.88;4898013;29;20052;-63
2024/01/09 09:34:42;;;;;;;29.08;15.48;;;;;;;-4.04;54.20;102123.31;4898246;29;20092;-64
2024/01/09 09:37:45;;;;;;;14.18;7.53;;;;;;;-4.07;53.84;102124.06;4897939;29;20100;-63
2024/01/09 09:40:49;;;;;;;9.45;5.47;;;;;;;-4.04;53.71;102124.19;4897298;29;20055;-63
2024/01/09 09:43:57;;;;;;;9.38;5.75;;;;;;;-3.98;54.17;102121.81;4897645;29;20115;-63
2024/01/09 09:47:01;;;;;;;8.75;5.03;;;;;;;-3.94;54.48;102120.22;4886775;29;20083;-63
2024/01/09 09:50:08;;;;;;;9.15;5.00;;;;;;;-3.91;54.62;102114.38;4897935;29;20052;-63
2024/01/09 09:53:11;;;;;;;8.30;5.07;;;;;;;-3.98;53.88;102111.59;4897585;29;20455;-73
2024/01/09 09:56:15;;;;;;;8.82;5.38;;;;;;;-4.09;55.01;102105.25;4886288;29;20517;-65
2024/01/09 09:59:18;;;;;;;10.77;6.03;;;;;;;-3.79;54.12;102101.97;4897514;29;20127;-66
2024/01/09 10:02:26;;;;;;;10.88;6.63;;;;;;;-3.75;53.03;102101.25;4897531;29;20498;-69
2024/01/09 10:05:32;;;;;;;10.30;4.88;;;;;;;-3.52;51.58;102095.16;4897513;29;20051;-64
2024/01/09 10:08:35;;;;;;;8.05;5.13;;;;;;;-3.44;51.81;102095.41;4897577;29;20067;-64
2024/01/09 10:11:38;;;;;;;8.23;5.78;;;;;;;-3.40;51.06;102098.91;4885822;29;20372;-64
2024/01/09 10:15:01;;;;;;;9.63;4.82;;;;;;;-3.34;51.20;102093.97;4897352;29;20509;-64
2024/01/09 10:18:08;;;;;;;9.88;5.63;;;;;;;-3.35;51.31;102103.34;4897856;29;20566;-66
2024/01/09 10:21:12;;;;;;;9.07;5.38;;;;;;;-3.34;49.60;102088.88;4897539;29;20073;-65
2024/01/09 10:24:16;;;;;;;8.20;5.22;;;;;;;-3.29;49.62;102092.41;4897757;29;20047;-65
2024/01/09 10:27:21;;;;;;;8.43;4.43;;;;;;;-3.10;50.40;102084.44;4897083;29;20733;-66
2024/01/09 10:30:24;;;;;;;9.00;4.47;;;;;;;-3.10;49.87;102076.78;4897004;29;20056;-65
2024/01/09 10:33:27;;;;;;;;;;;;;;;-3.01;49.66;102070.19;4897608;29;20156;-65
2024/01/09 10:36:31;;;;;;;7.50;4.78;;;;;;;-3.16;49.09;102068.94;4897570;29;19937;-65
2024/01/09 10:39:35;;;;;;;8.55;4.47;;;;;;;-3.12;48.83;102060.53;4897238;29;20514;-65
2024/01/09 10:42:46;;;;;;;9.52;4.43;;;;;;;-2.93;48.45;102056.78;4897228;29;20088;-65
2024/01/09 10:45:52;;;;;;;8.90;5.00;;;;;;;-2.90;48.77;102056.00;4897600;29;20140;-65
2024/01/09 10:48:58;;;;;;;8.40;4.60;;;;;;;-2.90;48.00;102046.63;4885344;29;20051;-65
2024/01/09 10:52:06;;;;;;;8.45;4.75;;;;;;;-2.73;48.52;102044.53;4896600;29;20056;-66
2024/01/09 10:55:09;;;;;;;154.23;54.97;;;;;;;-2.73;48.01;102049.66;4897138;29;20418;-65
2024/01/09 10:58:13;;;;;;;259.08;92.63;;;;;;;-2.74;47.07;102042.81;4896734;29;20471;-65
2024/01/09 11:01:17;;;;;;;;;;;;;;;-2.78;47.49;102048.63;4897419;29;20147;-65
2024/01/09 11:04:24;;;;;;;33.83;15.30;;;;;;;-2.79;47.31;102040.94;4896693;29;20059;-65
2024/01/09 11:07:30;;;;;;;11.90;5.82;;;;;;;-2.77;47.92;102039.28;4896966;29;20140;-65
2024/01/09 11:10:33;;;;;;;7.20;4.97;;;;;;;-2.55;48.22;102039.03;4896671;29;20419;-65
2024/01/09 11:13:39;;;;;;;8.00;4.93;;;;;;;-2.48;47.02;102034.94;4897126;29;20079;-65
2024/01/09 11:16:45;;;;;;;7.47;4.28;;;;;;;-2.45;47.42;102032.44;4896626;29;20047;-65
2024/01/09 11:19:49;;;;;;;9.88;4.97;;;;;;;-2.42;46.35;102030.81;4896222;29;20092;-65
2024/01/09 11:22:52;;;;;;;8.48;4.57;;;;;;;-2.42;47.16;102025.69;4896837;29;20103;-65
2024/01/09 11:25:59;;;;;;;7.20;4.43;;;;;;;-2.38;46.83;102022.38;4896088;29;20056;-65
2024/01/09 11:29:02;;;;;;;7.13;4.47;;;;;;;-2.34;46.46;102018.19;4896357;29;20170;-65
2024/01/09 11:32:09;;;;;;;7.38;4.18;;;;;;;-2.25;46.47;102017.56;4896154;29;20063;-65
2024/01/09 11:35:15;;;;;;;8.18;4.68;;;;;;;-2.26;46.59;102006.44;4895164;29;20056;-65
2024/01/09 11:38:18;;;;;;;11.25;5.60;;;;;;;-2.17;46.80;102004.09;4896445;29;20047;-66
2024/01/09 11:41:23;;;;;;;9.65;5.43;;;;;;;-2.26;46.52;102006.44;4896055;29;20099;-66
2024/01/09 11:44:26;;;;;;;7.88;4.40;;;;;;;-2.08;46.85;101995.75;4895979;29;20051;-66
2024/01/09 11:47:30;;;;;;;11.02;5.85;;;;;;;-2.15;46.62;101994.75;4896234;29;20120;-66
2024/01/09 11:50:33;;;;;;;11.23;4.95;;;;;;;-2.10;45.94;101982.03;4895937;29;20059;-66
2024/01/09 11:53:37;;;;;;;7.97;4.45;;;;;;;-2.07;46.26;101992.38;4896138;29;20055;-66
2024/01/09 11:56:40;;;;;;;8.00;4.90;;;;;;;-2.08;45.65;101977.81;4884504;29;20051;-66
2024/01/09 11:59:44;;;;;;;9.60;4.50;;;;;;;-1.97;46.04;101980.63;4896103;29;20072;-66
2024/01/09 12:02:49;;;;;;;9.90;6.65;;;;;;;-1.99;45.96;101980.56;4896510;29;20047;-65
2024/01/09 12:05:52;;;;;;;10.02;4.43;;;;;;;-2.07;44.65;101976.09;4896139;29;20076;-65
2024/01/09 12:08:56;;;;;;;7.50;4.57;;;;;;;-2.00;45.76;101962.63;4896159;29;20075;-66
2024/01/09 12:11:59;;;;;;;6.03;3.63;;;;;;;-1.92;45.28;101964.50;4895779;29;20414;-66
2024/01/09 12:15:04;;;;;;;7.45;4.40;;;;;;;-1.93;46.75;101965.34;4895865;29;20088;-67
2024/01/09 12:18:07;;;;;;;7.57;4.50;;;;;;;-1.76;45.45;101965.69;4896004;29;20162;-66
2024/01/09 12:21:11;;;;;;;8.98;4.78;;;;;;;-1.78;45.31;101953.69;4894998;29;20087;-66
2024/01/09 12:24:14;;;;;;;8.02;5.00;;;;;;;-1.79;45.87;101952.81;4895494;29;20064;-66
2024/01/09 12:27:20;;;;;;;9.23;5.80;;;;;;;-1.80;46.13;101951.09;4895412;29;20254;-66
2024/01/09 12:30:23;;;;;;;9.55;5.35;;;;;;;-1.68;45.01;101961.59;4895676;29;20187;-66
2024/01/09 12:33:28;;;;;;;8.52;4.93;;;;;;;-1.57;44.10;101950.69;4895527;29;20104;-65
2024/01/09 12:36:31;;;;;;;11.68;4.55;;;;;;;-1.56;44.53;101944.72;4894583;29;20068;-65
2024/01/09 12:39:35;;;;;;;7.75;4.63;;;;;;;-1.57;44.54;101943.88;4895169;29;20119;-65
2024/01/09 12:42:39;;;;;;;8.48;4.82;;;;;;;-1.70;44.44;101932.50;4893939;29;20044;-65
2024/01/09 12:45:42;;;;;;;12.43;5.95;;;;;;;-1.65;45.53;101936.03;4895550;29;20100;-66
2024/01/09 12:48:52;;;;;;;23.15;9.23;;;;;;;-1.66;44.88;101924.03;4895335;29;20112;-65
2024/01/09 12:51:58;;;;;;;34.45;12.73;;;;;;;-1.57;44.63;101918.22;4895530;29;20055;-66
2024/01/09 12:55:06;;;;;;;52.28;18.52;;;;;;;-1.52;44.34;101923.44;4895264;29;20463;-65
2024/01/09 12:58:12;;;;;;;35.90;12.48;;;;;;;-1.59;44.61;101916.47;4898406;29;20147;-65
2024/01/09 13:01:18;;;;;;;51.88;17.75;;;;;;;-1.49;43.79;101915.81;4899212;29;20177;-65
2024/01/09 13:04:22;;;;;;;51.05;19.00;;;;;;;-1.42;44.29;101915.09;4898754;29;20051;-65
2024/01/09 13:07:25;;;;;;;228.18;69.95;;;;;;;-1.35;44.03;101908.38;4899410;29;20145;-65
2024/01/09 13:10:28;;;;;;;108.72;37.45;;;;;;;-1.38;44.05;101911.75;4898547;29;20128;-65
2024/01/09 13:13:34;;;;;;;;;;;;;;;-1.36;42.79;101899.81;4899182;29;20072;-65
2024/01/09 13:16:39;;;;;;;39.90;13.80;;;;;;;-1.40;42.56;101905.75;4898619;29;20199;-65
2024/01/09 13:19:44;;;;;;;38.67;13.73;;;;;;;-1.31;43.07;101905.03;4898875;29;20092;-65
2024/01/09 13:22:47;;;;;;;57.90;21.02;;;;;;;-1.32;42.20;101904.16;4882095;29;20064;-65
2024/01/09 13:25:54;;;;;;;107.72;39.20;;;;;;;-1.33;42.28;101897.31;4879715;29;20048;-65
2024/01/09 13:28:57;;;;;;;26.42;13.20;;;;;;;-1.30;42.36;101891.38;4879559;29;20083;-65
2024/01/09 13:32:01;;;;;;;49.75;22.40;;;;;;;-1.24;42.10;101901.75;4879364;29;20076;-65
2024/01/09 13:35:04;;;;;;;38.22;17.90;;;;;;;-1.21;42.44;101896.69;4879875;29;20056;-65
2024/01/09 13:38:08;;;;;;;64.60;27.85;;;;;;;-1.28;42.54;101894.81;4879712;29;20069;-67
2024/01/09 13:41:13;;;;;;;256.63;81.40;;;;;;;-1.19;42.05;101892.41;4879453;29;20043;-64
2024/01/09 13:44:16;;;;;;;106.32;36.47;;;;;;;-1.12;42.95;101895.94;4879044;29;20519;-65
2024/01/09 13:47:20;;;;;;;144.95;43.58;;;;;;;-1.12;42.62;101889.13;4879431;29;20056;-63
2024/01/09 13:50:23;;;;;;;82.57;36.50;;;;;;;-1.17;42.31;101894.19;4879368;29;20423;-69
2024/01/09 13:53:26;;;;;;;16.95;8.55;;;;;;;-1.08;42.43;101895.19;4879499;29;20141;-65
2024/01/09 13:56:31;;;;;;;10.18;5.97;;;;;;;-1.10;42.23;101891.72;4879213;29;20411;-65
2024/01/09 13:59:35;;;;;;;11.35;5.50;;;;;;;-1.11;42.78;101882.31;4878721;29;20073;-65
2024/01/09 14:02:56;;;;;;;8.05;4.57;;;;;;;-1.19;42.35;101884.72;4916383;29;20565;-66
2024/01/09 14:10:26;;;;;;;20.05;10.30;;;;;;;-1.08;42.83;101879.78;4892561;29;20059;-65
2024/01/09 14:14:11;;;;;;;35.58;14.52;;;;;;;-1.07;42.33;101884.06;4898083;29;20582;-66
2024/01/09 14:17:52;;;;;;;56.50;30.15;;;;;;;-1.05;42.55;101883.28;4889955;29;20059;-65
2024/01/09 14:21:01;;;;;;;12.80;7.28;;;;;;;-1.17;43.97;101881.34;4897286;29;20116;-66
2024/01/09 14:29:14;;;;;;;11.63;5.75;;;;;;;-1.22;43.78;101875.25;4895445;29;20071;-65